createdAt,value
2019-02-17T00:00:54.917Z,18.07
2019-02-17T00:06:57.057Z,18.75
2019-02-17T00:12:59.410Z,14.73
2019-02-17T00:19:01.544Z,19.12
2019-02-17T00:25:03.840Z,19.60
2019-02-17T00:31:06.064Z,17.80
2019-02-17T00:37:08.263Z,17.48
2019-02-17T00:43:10.450Z,20.12
2019-02-17T00:49:14.777Z,20.50
2019-02-17T00:55:16.977Z,19.50
2019-02-17T01:01:19.179Z,23.85
2019-02-17T01:07:21.717Z,16.77
2019-02-17T01:13:23.893Z,19.32
2019-02-17T01:19:26.260Z,18.05
2019-02-17T01:25:28.460Z,17.07
2019-02-17T01:31:30.701Z,18.17
2019-02-17T01:37:32.942Z,18.07
2019-02-17T01:43:35.153Z,25.00
2019-02-17T01:49:37.402Z,21.20
2019-02-17T01:55:40.513Z,19.87
2019-02-17T02:01:42.698Z,22.05
2019-02-17T02:07:44.958Z,22.67
2019-02-17T02:13:47.269Z,20.00
2019-02-17T02:19:49.594Z,20.88
2019-02-17T02:25:51.787Z,25.32
2019-02-17T02:31:54.152Z,22.07
2019-02-17T02:37:56.364Z,19.32
2019-02-17T02:43:58.546Z,23.75
2019-02-17T02:50:00.901Z,19.48
2019-02-17T02:56:03.245Z,22.45
2019-02-17T03:02:07.679Z,22.10
2019-02-17T03:08:09.907Z,29.85
2019-02-17T03:14:12.207Z,22.58
2019-02-17T03:20:14.502Z,27.25
2019-02-17T03:26:16.676Z,21.25
2019-02-17T03:32:18.900Z,23.57
2019-02-17T03:38:21.165Z,22.40
2019-02-17T03:44:23.331Z,20.12
2019-02-17T03:50:25.609Z,24.15
2019-02-17T03:56:27.850Z,16.93
2019-02-17T04:02:30.125Z,20.20
2019-02-17T04:08:34.385Z,18.65
2019-02-17T04:14:36.554Z,26.25
2019-02-17T04:20:38.845Z,23.67
2019-02-17T04:26:41.067Z,21.15
2019-02-17T04:32:43.331Z,29.85
2019-02-17T04:38:45.745Z,26.35
2019-02-17T04:44:47.985Z,23.32
2019-02-17T04:50:50.204Z,22.07
2019-02-17T04:56:52.693Z,23.67
2019-02-17T05:02:55.011Z,24.27
2019-02-17T05:08:57.204Z,22.52
2019-02-17T05:15:01.600Z,22.05
2019-02-17T05:21:03.850Z,22.48
2019-02-17T05:27:06.246Z,29.30
2019-02-17T05:33:08.776Z,29.12
2019-02-17T05:39:10.947Z,34.05
2019-02-17T05:45:13.260Z,24.00
2019-02-17T05:51:15.536Z,23.25
2019-02-17T05:57:17.720Z,25.57
2019-02-17T06:03:20.037Z,33.13
2019-02-17T06:09:22.299Z,24.45
2019-02-17T06:15:24.550Z,29.18
2019-02-17T06:21:27.255Z,27.13
2019-02-17T06:27:29.378Z,26.75
2019-02-17T06:33:31.615Z,29.90
2019-02-17T06:39:33.893Z,28.67
2019-02-17T06:45:36.225Z,26.05
2019-02-17T06:51:38.479Z,23.83
2019-02-17T06:57:42.173Z,24.23
2019-02-17T07:03:45.885Z,23.98
2019-02-17T07:09:48.035Z,29.18
2019-02-17T07:15:53.195Z,23.98
2019-02-17T07:21:55.922Z,24.98
2019-02-17T07:27:58.373Z,29.00
2019-02-17T07:34:00.625Z,29.75
2019-02-17T07:40:03.311Z,21.57
2019-02-17T07:46:05.627Z,16.23
2019-02-17T07:52:08.002Z,17.10
2019-02-17T07:58:10.325Z,80.57
2019-02-17T08:04:14.576Z,333.52
2019-02-17T08:10:16.794Z,268.82
2019-02-17T08:16:18.972Z,25.52
2019-02-17T08:22:21.309Z,23.42
2019-02-17T08:28:25.640Z,17.15
2019-02-17T08:34:27.911Z,16.70
2019-02-17T08:40:30.099Z,14.58
2019-02-17T08:46:32.363Z,16.70
2019-02-17T08:52:34.829Z,13.30
2019-02-17T08:58:37.163Z,14.65
2019-02-17T09:04:39.411Z,14.20
2019-02-17T09:10:41.761Z,13.70
2019-02-17T09:16:43.943Z,17.92
2019-02-17T09:22:46.212Z,19.40
2019-02-17T09:28:50.566Z,67.37
2019-02-17T09:34:53.022Z,34.45
2019-02-17T09:40:55.174Z,42.38
2019-02-17T09:46:57.398Z,48.30
2019-02-17T09:52:59.538Z,50.63
2019-02-17T09:59:01.806Z,51.25
2019-02-17T10:05:04.163Z,60.03
2019-02-17T10:11:06.398Z,54.83
2019-02-17T10:17:08.488Z,52.43
2019-02-17T10:23:10.641Z,54.40
2019-02-17T10:29:12.995Z,58.75
2019-02-17T10:35:15.160Z,55.65
2019-02-17T10:41:17.727Z,56.28
2019-02-17T10:47:19.988Z,60.43
2019-02-17T10:53:22.243Z,47.00
2019-02-17T10:59:24.401Z,55.90
2019-02-17T11:05:26.532Z,51.95
2019-02-17T11:11:28.839Z,51.92
2019-02-17T11:17:31.092Z,48.02
2019-02-17T11:23:33.460Z,49.58
2019-02-17T11:29:37.957Z,46.65
2019-02-17T11:35:40.222Z,44.18
2019-02-17T11:41:42.348Z,51.13
2019-02-17T11:47:44.668Z,42.23
2019-02-17T11:53:46.944Z,51.58
2019-02-17T11:59:49.115Z,50.75
2019-02-17T12:05:51.507Z,35.52
2019-02-17T12:11:53.689Z,38.65
2019-02-17T12:17:55.959Z,35.68
2019-02-17T12:24:12.111Z,32.05
2019-02-17T12:30:14.492Z,27.98
2019-02-17T12:36:18.875Z,28.75
2019-02-17T12:42:21.350Z,24.95
2019-02-17T12:48:23.599Z,24.37
2019-02-17T12:54:29.066Z,18.10
2019-02-17T13:00:29.873Z,22.70
2019-02-17T13:06:32.045Z,17.50
2019-02-17T13:12:34.381Z,12.70
2019-02-17T13:18:36.541Z,17.02
2019-02-17T13:24:38.774Z,12.65
2019-02-17T13:30:40.895Z,14.85
2019-02-17T13:36:43.084Z,14.78
2019-02-17T13:42:47.062Z,16.45
2019-02-17T13:48:49.320Z,20.27
2019-02-17T13:54:51.551Z,16.12
2019-02-17T14:00:53.704Z,14.75
2019-02-17T14:06:55.834Z,15.20
2019-02-17T14:12:58.872Z,15.38
2019-02-17T14:19:01.014Z,14.28
2019-02-17T14:25:03.231Z,14.68
2019-02-17T14:31:05.475Z,11.70
2019-02-17T14:37:07.610Z,12.90
2019-02-17T14:43:11.864Z,15.08
2019-02-17T14:49:14.196Z,15.63
2019-02-17T14:55:16.479Z,14.35
2019-02-17T15:01:18.606Z,15.68
2019-02-17T15:07:21.095Z,13.93
2019-02-17T15:13:24.643Z,14.25
2019-02-17T15:19:27.086Z,17.62
2019-02-17T15:25:29.291Z,12.55
2019-02-17T15:31:31.605Z,12.45
2019-02-17T15:37:33.854Z,12.33
2019-02-17T15:43:36.022Z,12.03
2019-02-17T15:49:39.960Z,14.15
2019-02-17T15:55:42.490Z,12.37
2019-02-17T16:01:44.656Z,13.98
2019-02-17T16:07:47.026Z,60.75
2019-02-17T16:13:49.391Z,169.43
2019-02-17T16:19:51.575Z,90.77
2019-02-17T16:25:53.821Z,66.25
2019-02-17T16:31:56.276Z,129.78
2019-02-17T16:37:58.408Z,56.50
2019-02-17T16:44:07.248Z,50.63
2019-02-17T16:50:13.649Z,78.62
2019-02-17T16:56:16.078Z,63.68
2019-02-17T17:02:18.382Z,33.38
2019-02-17T17:08:20.623Z,42.40
2019-02-17T17:14:24.155Z,27.67
2019-02-17T17:20:26.431Z,25.15
2019-02-17T17:26:28.724Z,29.52
2019-02-17T17:32:31.019Z,28.42
2019-02-17T17:38:35.223Z,33.48
2019-02-17T17:44:37.672Z,23.12
2019-02-17T17:50:42.052Z,36.77
2019-02-17T17:56:44.398Z,36.15
2019-02-17T18:02:46.810Z,31.85
2019-02-17T18:08:49.116Z,51.75
2019-02-17T18:14:52.385Z,54.40
2019-02-17T18:20:55.822Z,49.88
2019-02-17T18:26:58.096Z,54.45
2019-02-17T18:33:00.443Z,49.35
2019-02-17T18:39:03.733Z,47.13
2019-02-17T18:45:07.601Z,78.72
2019-02-17T18:51:13.017Z,58.00
2019-02-17T18:57:15.283Z,50.43
2019-02-17T19:03:20.343Z,99.47
2019-02-17T19:09:22.797Z,109.92
2019-02-17T19:15:25.240Z,128.68
2019-02-17T19:21:29.492Z,133.85
2019-02-17T19:27:31.754Z,119.15
2019-02-17T19:33:34.129Z,70.35
2019-02-17T19:39:36.488Z,54.67
2019-02-17T19:45:38.759Z,51.45
2019-02-17T19:51:43.236Z,55.15
2019-02-17T19:57:45.469Z,43.63
2019-02-17T20:03:52.200Z,42.43
2019-02-17T20:09:55.554Z,55.75
2019-02-17T20:15:57.744Z,40.85
2019-02-17T20:22:00.076Z,45.63
2019-02-17T20:28:02.648Z,37.67
2019-02-17T20:34:04.919Z,40.08
2019-02-17T20:40:08.302Z,43.08
2019-02-17T20:46:10.569Z,43.73
2019-02-17T20:52:14.598Z,36.53
2019-02-17T20:58:16.982Z,40.65
2019-02-17T21:04:19.367Z,39.27
2019-02-17T21:10:21.731Z,35.30
2019-02-17T21:16:25.053Z,36.05
2019-02-17T21:22:27.388Z,31.77
2019-02-17T21:28:29.819Z,31.82
2019-02-17T21:34:32.059Z,38.05
2019-02-17T21:40:34.217Z,32.15
2019-02-17T21:46:36.502Z,30.27
2019-02-17T21:52:42.111Z,30.70
2019-02-17T21:58:45.724Z,33.42
2019-02-17T22:04:47.987Z,34.78
2019-02-17T22:10:50.169Z,30.68
2019-02-17T22:16:52.282Z,28.45
2019-02-17T22:22:54.543Z,28.00
2019-02-17T22:28:56.824Z,31.35
2019-02-17T22:34:59.028Z,37.05
2019-02-17T22:41:01.259Z,32.83
2019-02-17T22:47:03.390Z,31.55
2019-02-17T22:53:05.743Z,27.22
2019-02-17T22:59:10.004Z,26.10
2019-02-17T23:05:12.580Z,27.20
2019-02-17T23:11:14.735Z,25.40
2019-02-17T23:17:16.892Z,29.45
2019-02-17T23:23:19.025Z,25.45
2019-02-17T23:29:21.218Z,24.18
2019-02-17T23:35:23.348Z,23.22
2019-02-17T23:41:25.671Z,27.52
2019-02-17T23:47:27.842Z,26.77
2019-02-17T23:53:30.046Z,27.67
2019-02-17T23:59:32.291Z,27.25
